sensor_id;sensor_type;location;lat;lon;timestamp;P1;durP1;ratioP1;P2;durP2;ratioP2
4290;SDS011;2159;50.906;7.152;2022-12-07T00:00:53;30.60;;;18.40;;
4290;SDS011;2159;50.906;7.152;2022-12-07T00:03:21;36.23;;;18.90;;
4290;SDS011;2159;50.906;7.152;2022-12-07T00:05:49;36.73;;;19.67;;
4290;SDS011;2159;50.906;7.152;2022-12-07T00:08:17;32.23;;;19.20;;
4290;SDS011;2159;50.906;7.152;2022-12-07T00:10:45;39.10;;;19.73;;
4290;SDS011;2159;50.906;7.152;2022-12-07T00:13:12;35.60;;;19.60;;
4290;SDS011;2159;50.906;7.152;2022-12-07T00:15:40;33.90;;;18.50;;
4290;SDS011;2159;50.906;7.152;2022-12-07T00:18:07;31.83;;;19.20;;
4290;SDS011;2159;50.906;7.152;2022-12-07T00:20:35;32.73;;;19.13;;
4290;SDS011;2159;50.906;7.152;2022-12-07T00:23:03;35.40;;;19.80;;
4290;SDS011;2159;50.906;7.152;2022-12-07T00:25:32;30.50;;;18.60;;
4290;SDS011;2159;50.906;7.152;2022-12-07T00:27:59;32.37;;;19.17;;
4290;SDS011;2159;50.906;7.152;2022-12-07T00:30:27;38.57;;;19.67;;
4290;SDS011;2159;50.906;7.152;2022-12-07T00:32:54;40.13;;;20.07;;
4290;SDS011;2159;50.906;7.152;2022-12-07T00:35:21;31.23;;;19.30;;
4290;SDS011;2159;50.906;7.152;2022-12-07T00:37:49;35.90;;;19.57;;
4290;SDS011;2159;50.906;7.152;2022-12-07T00:40:16;33.37;;;18.93;;
4290;SDS011;2159;50.906;7.152;2022-12-07T00:42:45;39.10;;;21.40;;
4290;SDS011;2159;50.906;7.152;2022-12-07T00:45:13;46.90;;;20.67;;
4290;SDS011;2159;50.906;7.152;2022-12-07T00:47:41;32.97;;;19.43;;
4290;SDS011;2159;50.906;7.152;2022-12-07T00:50:08;37.60;;;19.87;;
4290;SDS011;2159;50.906;7.152;2022-12-07T00:52:36;37.20;;;19.23;;
4290;SDS011;2159;50.906;7.152;2022-12-07T00:55:04;35.23;;;19.20;;
4290;SDS011;2159;50.906;7.152;2022-12-07T00:57:31;34.17;;;19.60;;
4290;SDS011;2159;50.906;7.152;2022-12-07T01:00:00;34.67;;;19.70;;
4290;SDS011;2159;50.906;7.152;2022-12-07T01:02:28;38.20;;;19.47;;
4290;SDS011;2159;50.906;7.152;2022-12-07T01:04:55;33.10;;;19.13;;
4290;SDS011;2159;50.906;7.152;2022-12-07T01:07:23;35.97;;;19.40;;
4290;SDS011;2159;50.906;7.152;2022-12-07T01:09:50;34.53;;;19.10;;
4290;SDS011;2159;50.906;7.152;2022-12-07T01:12:18;37.30;;;19.93;;
4290;SDS011;2159;50.906;7.152;2022-12-07T01:14:45;34.43;;;19.10;;
4290;SDS011;2159;50.906;7.152;2022-12-07T01:17:14;39.93;;;20.37;;
4290;SDS011;2159;50.906;7.152;2022-12-07T01:19:42;35.43;;;18.50;;
4290;SDS011;2159;50.906;7.152;2022-12-07T01:22:09;33.10;;;18.90;;
4290;SDS011;2159;50.906;7.152;2022-12-07T01:24:37;35.93;;;18.87;;
4290;SDS011;2159;50.906;7.152;2022-12-07T01:27:04;35.50;;;18.67;;
4290;SDS011;2159;50.906;7.152;2022-12-07T01:29:32;36.87;;;18.50;;
4290;SDS011;2159;50.906;7.152;2022-12-07T01:31:59;32.50;;;19.03;;
4290;SDS011;2159;50.906;7.152;2022-12-07T01:34:28;32.17;;;18.27;;
4290;SDS011;2159;50.906;7.152;2022-12-07T01:36:55;31.60;;;18.10;;
4290;SDS011;2159;50.906;7.152;2022-12-07T01:39:23;34.30;;;19.40;;
4290;SDS011;2159;50.906;7.152;2022-12-07T01:41:51;34.40;;;20.23;;
4290;SDS011;2159;50.906;7.152;2022-12-07T01:44:20;38.27;;;19.13;;
4290;SDS011;2159;50.906;7.152;2022-12-07T01:46:48;35.03;;;19.90;;
4290;SDS011;2159;50.906;7.152;2022-12-07T01:49:17;38.93;;;19.10;;
4290;SDS011;2159;50.906;7.152;2022-12-07T01:51:47;34.97;;;19.70;;
4290;SDS011;2159;50.906;7.152;2022-12-07T01:54:16;37.87;;;20.10;;
4290;SDS011;2159;50.906;7.152;2022-12-07T01:56:45;32.33;;;19.20;;
4290;SDS011;2159;50.906;7.152;2022-12-07T01:59:14;33.13;;;19.37;;
4290;SDS011;2159;50.906;7.152;2022-12-07T02:01:42;36.17;;;20.43;;
4290;SDS011;2159;50.906;7.152;2022-12-07T02:04:09;39.90;;;19.17;;
4290;SDS011;2159;50.906;7.152;2022-12-07T02:06:37;30.70;;;18.40;;
4290;SDS011;2159;50.906;7.152;2022-12-07T02:09:06;35.10;;;20.43;;
4290;SDS011;2159;50.906;7.152;2022-12-07T02:11:34;31.87;;;19.53;;
4290;SDS011;2159;50.906;7.152;2022-12-07T02:14:01;35.23;;;19.03;;
4290;SDS011;2159;50.906;7.152;2022-12-07T02:16:31;36.63;;;19.50;;
4290;SDS011;2159;50.906;7.152;2022-12-07T02:19:06;38.40;;;20.77;;
4290;SDS011;2159;50.906;7.152;2022-12-07T02:21:40;36.30;;;20.07;;
4290;SDS011;2159;50.906;7.152;2022-12-07T02:24:23;35.20;;;20.53;;
4290;SDS011;2159;50.906;7.152;2022-12-07T02:29:39;35.67;;;20.13;;
4290;SDS011;2159;50.906;7.152;2022-12-07T02:32:08;37.20;;;20.03;;
4290;SDS011;2159;50.906;7.152;2022-12-07T02:34:39;35.80;;;20.30;;
4290;SDS011;2159;50.906;7.152;2022-12-07T02:37:10;39.47;;;20.47;;
4290;SDS011;2159;50.906;7.152;2022-12-07T02:39:41;35.87;;;19.67;;
4290;SDS011;2159;50.906;7.152;2022-12-07T02:42:12;37.97;;;19.90;;
4290;SDS011;2159;50.906;7.152;2022-12-07T02:44:42;35.07;;;19.83;;
4290;SDS011;2159;50.906;7.152;2022-12-07T02:47:12;39.67;;;20.50;;
4290;SDS011;2159;50.906;7.152;2022-12-07T02:49:41;41.47;;;21.30;;
4290;SDS011;2159;50.906;7.152;2022-12-07T02:52:09;41.03;;;20.50;;
4290;SDS011;2159;50.906;7.152;2022-12-07T02:54:36;36.57;;;20.77;;
4290;SDS011;2159;50.906;7.152;2022-12-07T02:57:06;37.73;;;21.70;;
4290;SDS011;2159;50.906;7.152;2022-12-07T02:59:41;40.40;;;21.03;;
4290;SDS011;2159;50.906;7.152;2022-12-07T03:02:17;43.00;;;20.77;;
4290;SDS011;2159;50.906;7.152;2022-12-07T03:04:47;38.77;;;20.60;;
4290;SDS011;2159;50.906;7.152;2022-12-07T03:07:21;37.90;;;20.90;;
4290;SDS011;2159;50.906;7.152;2022-12-07T03:09:51;35.07;;;19.70;;
4290;SDS011;2159;50.906;7.152;2022-12-07T03:12:21;33.07;;;19.13;;
4290;SDS011;2159;50.906;7.152;2022-12-07T03:14:52;37.33;;;20.77;;
4290;SDS011;2159;50.906;7.152;2022-12-07T03:17:24;33.80;;;19.40;;
4290;SDS011;2159;50.906;7.152;2022-12-07T03:19:53;44.13;;;21.37;;
4290;SDS011;2159;50.906;7.152;2022-12-07T03:22:22;40.20;;;21.77;;
4290;SDS011;2159;50.906;7.152;2022-12-07T03:24:51;39.93;;;21.00;;
4290;SDS011;2159;50.906;7.152;2022-12-07T03:27:20;39.33;;;20.20;;
4290;SDS011;2159;50.906;7.152;2022-12-07T03:29:49;39.37;;;20.57;;
4290;SDS011;2159;50.906;7.152;2022-12-07T03:32:19;37.33;;;20.23;;
4290;SDS011;2159;50.906;7.152;2022-12-07T03:34:51;33.87;;;20.00;;
4290;SDS011;2159;50.906;7.152;2022-12-07T03:37:22;39.33;;;22.00;;
4290;SDS011;2159;50.906;7.152;2022-12-07T03:39:52;37.63;;;20.83;;
4290;SDS011;2159;50.906;7.152;2022-12-07T03:42:24;35.33;;;19.70;;
4290;SDS011;2159;50.906;7.152;2022-12-07T03:44:52;38.87;;;19.50;;
4290;SDS011;2159;50.906;7.152;2022-12-07T03:47:20;35.90;;;19.17;;
4290;SDS011;2159;50.906;7.152;2022-12-07T03:49:53;37.17;;;20.30;;
4290;SDS011;2159;50.906;7.152;2022-12-07T03:52:23;33.43;;;19.30;;
4290;SDS011;2159;50.906;7.152;2022-12-07T03:54:52;38.70;;;19.57;;
4290;SDS011;2159;50.906;7.152;2022-12-07T03:57:21;35.90;;;20.00;;
4290;SDS011;2159;50.906;7.152;2022-12-07T03:59:49;36.13;;;20.37;;
4290;SDS011;2159;50.906;7.152;2022-12-07T04:02:18;35.63;;;20.20;;
4290;SDS011;2159;50.906;7.152;2022-12-07T04:04:45;36.63;;;19.57;;
4290;SDS011;2159;50.906;7.152;2022-12-07T04:07:14;37.80;;;20.17;;
4290;SDS011;2159;50.906;7.152;2022-12-07T04:09:42;43.20;;;20.70;;
4290;SDS011;2159;50.906;7.152;2022-12-07T04:12:09;43.27;;;20.13;;
4290;SDS011;2159;50.906;7.152;2022-12-07T04:14:37;35.23;;;19.03;;
4290;SDS011;2159;50.906;7.152;2022-12-07T04:17:04;35.00;;;19.60;;
4290;SDS011;2159;50.906;7.152;2022-12-07T04:19:32;41.10;;;20.27;;
4290;SDS011;2159;50.906;7.152;2022-12-07T04:22:00;38.23;;;20.70;;
4290;SDS011;2159;50.906;7.152;2022-12-07T04:24:30;38.40;;;19.67;;
4290;SDS011;2159;50.906;7.152;2022-12-07T04:26:57;40.33;;;19.70;;
4290;SDS011;2159;50.906;7.152;2022-12-07T04:29:25;39.43;;;21.30;;
4290;SDS011;2159;50.906;7.152;2022-12-07T04:31:52;37.57;;;20.67;;
4290;SDS011;2159;50.906;7.152;2022-12-07T04:34:20;36.03;;;20.30;;
4290;SDS011;2159;50.906;7.152;2022-12-07T04:36:47;40.20;;;20.90;;
4290;SDS011;2159;50.906;7.152;2022-12-07T04:39:17;44.40;;;20.27;;
4290;SDS011;2159;50.906;7.152;2022-12-07T04:41:47;39.70;;;19.70;;
4290;SDS011;2159;50.906;7.152;2022-12-07T04:44:15;35.10;;;19.50;;
4290;SDS011;2159;50.906;7.152;2022-12-07T04:46:43;38.00;;;19.57;;
4290;SDS011;2159;50.906;7.152;2022-12-07T04:49:11;34.73;;;18.90;;
4290;SDS011;2159;50.906;7.152;2022-12-07T04:51:40;39.93;;;19.63;;
4290;SDS011;2159;50.906;7.152;2022-12-07T04:54:07;33.10;;;18.60;;
4290;SDS011;2159;50.906;7.152;2022-12-07T04:56:35;36.20;;;19.40;;
4290;SDS011;2159;50.906;7.152;2022-12-07T04:59:04;37.87;;;20.47;;
4290;SDS011;2159;50.906;7.152;2022-12-07T05:01:32;35.30;;;19.93;;
4290;SDS011;2159;50.906;7.152;2022-12-07T05:03:59;38.47;;;19.83;;
4290;SDS011;2159;50.906;7.152;2022-12-07T05:06:27;32.97;;;18.67;;
4290;SDS011;2159;50.906;7.152;2022-12-07T05:08:55;40.33;;;19.47;;
4290;SDS011;2159;50.906;7.152;2022-12-07T05:11:22;38.30;;;19.70;;
4290;SDS011;2159;50.906;7.152;2022-12-07T05:14:10;36.30;;;19.70;;
4290;SDS011;2159;50.906;7.152;2022-12-07T05:16:38;36.77;;;18.97;;
4290;SDS011;2159;50.906;7.152;2022-12-07T05:19:07;41.87;;;20.93;;
4290;SDS011;2159;50.906;7.152;2022-12-07T05:21:34;42.57;;;19.93;;
4290;SDS011;2159;50.906;7.152;2022-12-07T05:24:02;37.77;;;19.80;;
4290;SDS011;2159;50.906;7.152;2022-12-07T05:26:29;37.07;;;20.23;;
4290;SDS011;2159;50.906;7.152;2022-12-07T05:28:57;39.70;;;19.67;;
4290;SDS011;2159;50.906;7.152;2022-12-07T05:31:26;36.10;;;19.67;;
4290;SDS011;2159;50.906;7.152;2022-12-07T05:33:54;34.77;;;18.90;;
4290;SDS011;2159;50.906;7.152;2022-12-07T05:36:21;37.60;;;19.80;;
4290;SDS011;2159;50.906;7.152;2022-12-07T05:38:49;40.30;;;19.67;;
4290;SDS011;2159;50.906;7.152;2022-12-07T05:41:18;33.83;;;19.23;;
4290;SDS011;2159;50.906;7.152;2022-12-07T05:44:03;40.13;;;19.17;;
4290;SDS011;2159;50.906;7.152;2022-12-07T05:46:32;36.37;;;18.97;;
4290;SDS011;2159;50.906;7.152;2022-12-07T05:48:59;38.10;;;19.20;;
4290;SDS011;2159;50.906;7.152;2022-12-07T05:51:27;39.77;;;17.83;;
4290;SDS011;2159;50.906;7.152;2022-12-07T05:53:54;37.03;;;18.23;;
4290;SDS011;2159;50.906;7.152;2022-12-07T05:56:22;36.40;;;19.13;;
4290;SDS011;2159;50.906;7.152;2022-12-07T05:58:50;37.90;;;18.73;;
4290;SDS011;2159;50.906;7.152;2022-12-07T06:01:36;33.93;;;17.83;;
4290;SDS011;2159;50.906;7.152;2022-12-07T06:04:04;35.83;;;18.30;;
4290;SDS011;2159;50.906;7.152;2022-12-07T06:06:31;34.87;;;18.20;;
4290;SDS011;2159;50.906;7.152;2022-12-07T06:08:59;36.60;;;18.50;;
4290;SDS011;2159;50.906;7.152;2022-12-07T06:11:26;37.27;;;18.00;;
4290;SDS011;2159;50.906;7.152;2022-12-07T06:14:11;34.07;;;18.00;;
4290;SDS011;2159;50.906;7.152;2022-12-07T06:16:40;30.77;;;17.60;;
4290;SDS011;2159;50.906;7.152;2022-12-07T06:19:08;31.50;;;17.80;;
4290;SDS011;2159;50.906;7.152;2022-12-07T06:21:36;37.27;;;18.10;;
4290;SDS011;2159;50.906;7.152;2022-12-07T06:24:03;28.73;;;17.17;;
4290;SDS011;2159;50.906;7.152;2022-12-07T06:26:31;32.17;;;17.57;;
4290;SDS011;2159;50.906;7.152;2022-12-07T06:28:58;32.47;;;19.00;;
4290;SDS011;2159;50.906;7.152;2022-12-07T06:31:26;34.10;;;18.10;;
4290;SDS011;2159;50.906;7.152;2022-12-07T06:33:58;35.67;;;18.73;;
4290;SDS011;2159;50.906;7.152;2022-12-07T06:36:25;34.27;;;18.10;;
4290;SDS011;2159;50.906;7.152;2022-12-07T06:38:53;34.27;;;18.87;;
4290;SDS011;2159;50.906;7.152;2022-12-07T06:41:20;33.30;;;18.40;;
4290;SDS011;2159;50.906;7.152;2022-12-07T06:43:48;31.57;;;17.27;;
4290;SDS011;2159;50.906;7.152;2022-12-07T06:46:21;37.20;;;18.70;;
4290;SDS011;2159;50.906;7.152;2022-12-07T06:48:49;36.13;;;17.87;;
4290;SDS011;2159;50.906;7.152;2022-12-07T06:51:17;30.50;;;17.10;;
4290;SDS011;2159;50.906;7.152;2022-12-07T06:53:45;27.53;;;16.27;;
4290;SDS011;2159;50.906;7.152;2022-12-07T06:56:12;30.87;;;17.87;;
4290;SDS011;2159;50.906;7.152;2022-12-07T06:58:40;33.00;;;17.80;;
4290;SDS011;2159;50.906;7.152;2022-12-07T07:01:08;27.37;;;17.07;;
4290;SDS011;2159;50.906;7.152;2022-12-07T07:03:36;28.83;;;16.60;;
4290;SDS011;2159;50.906;7.152;2022-12-07T07:06:04;30.70;;;15.67;;
4290;SDS011;2159;50.906;7.152;2022-12-07T07:08:33;26.60;;;16.40;;
4290;SDS011;2159;50.906;7.152;2022-12-07T07:11:01;28.17;;;16.53;;
4290;SDS011;2159;50.906;7.152;2022-12-07T07:13:28;30.00;;;16.47;;
4290;SDS011;2159;50.906;7.152;2022-12-07T07:15:56;29.80;;;17.57;;
4290;SDS011;2159;50.906;7.152;2022-12-07T07:18:23;30.20;;;16.97;;
4290;SDS011;2159;50.906;7.152;2022-12-07T07:20:51;36.30;;;16.97;;
4290;SDS011;2159;50.906;7.152;2022-12-07T07:23:19;32.03;;;17.50;;
4290;SDS011;2159;50.906;7.152;2022-12-07T07:25:48;30.33;;;17.00;;
4290;SDS011;2159;50.906;7.152;2022-12-07T07:28:16;36.17;;;19.27;;
4290;SDS011;2159;50.906;7.152;2022-12-07T07:30:43;33.57;;;17.53;;
4290;SDS011;2159;50.906;7.152;2022-12-07T07:33:11;30.37;;;18.20;;
4290;SDS011;2159;50.906;7.152;2022-12-07T07:35:39;35.77;;;19.93;;
4290;SDS011;2159;50.906;7.152;2022-12-07T07:38:07;36.60;;;20.40;;
4290;SDS011;2159;50.906;7.152;2022-12-07T07:40:35;30.50;;;19.40;;
4290;SDS011;2159;50.906;7.152;2022-12-07T07:43:04;33.03;;;20.10;;
4290;SDS011;2159;50.906;7.152;2022-12-07T07:45:31;32.90;;;19.87;;
4290;SDS011;2159;50.906;7.152;2022-12-07T07:47:59;32.30;;;18.00;;
4290;SDS011;2159;50.906;7.152;2022-12-07T07:50:26;33.43;;;18.20;;
4290;SDS011;2159;50.906;7.152;2022-12-07T07:52:54;32.13;;;17.87;;
4290;SDS011;2159;50.906;7.152;2022-12-07T07:55:21;34.63;;;18.70;;
4290;SDS011;2159;50.906;7.152;2022-12-07T07:57:49;34.23;;;18.17;;
4290;SDS011;2159;50.906;7.152;2022-12-07T08:00:22;31.13;;;19.00;;
4290;SDS011;2159;50.906;7.152;2022-12-07T08:02:49;33.27;;;18.93;;
4290;SDS011;2159;50.906;7.152;2022-12-07T08:05:17;34.47;;;19.87;;
4290;SDS011;2159;50.906;7.152;2022-12-07T08:07:45;40.60;;;18.60;;
4290;SDS011;2159;50.906;7.152;2022-12-07T08:10:13;35.33;;;17.97;;
4290;SDS011;2159;50.906;7.152;2022-12-07T08:12:41;37.60;;;18.27;;
4290;SDS011;2159;50.906;7.152;2022-12-07T08:15:25;32.00;;;18.20;;
4290;SDS011;2159;50.906;7.152;2022-12-07T08:17:53;35.33;;;19.47;;
4290;SDS011;2159;50.906;7.152;2022-12-07T08:20:20;41.17;;;21.03;;
4290;SDS011;2159;50.906;7.152;2022-12-07T08:22:48;35.97;;;20.47;;
4290;SDS011;2159;50.906;7.152;2022-12-07T08:25:15;38.03;;;20.73;;
4290;SDS011;2159;50.906;7.152;2022-12-07T08:27:43;35.07;;;18.90;;
4290;SDS011;2159;50.906;7.152;2022-12-07T08:30:11;38.40;;;21.03;;
4290;SDS011;2159;50.906;7.152;2022-12-07T08:32:39;33.90;;;19.50;;
4290;SDS011;2159;50.906;7.152;2022-12-07T08:35:07;35.37;;;20.90;;
4290;SDS011;2159;50.906;7.152;2022-12-07T08:37:35;30.93;;;18.27;;
4290;SDS011;2159;50.906;7.152;2022-12-07T08:40:03;36.60;;;19.57;;
4290;SDS011;2159;50.906;7.152;2022-12-07T08:42:31;36.80;;;19.57;;
4290;SDS011;2159;50.906;7.152;2022-12-07T08:45:05;36.90;;;19.87;;
4290;SDS011;2159;50.906;7.152;2022-12-07T08:47:32;35.27;;;19.70;;
4290;SDS011;2159;50.906;7.152;2022-12-07T08:50:02;30.60;;;18.03;;
4290;SDS011;2159;50.906;7.152;2022-12-07T08:52:30;33.60;;;18.23;;
4290;SDS011;2159;50.906;7.152;2022-12-07T08:54:58;37.87;;;19.07;;
4290;SDS011;2159;50.906;7.152;2022-12-07T08:57:26;34.37;;;19.63;;
4290;SDS011;2159;50.906;7.152;2022-12-07T08:59:54;37.30;;;21.30;;
4290;SDS011;2159;50.906;7.152;2022-12-07T09:02:21;35.00;;;18.47;;
4290;SDS011;2159;50.906;7.152;2022-12-07T09:04:49;39.43;;;20.80;;
4290;SDS011;2159;50.906;7.152;2022-12-07T09:07:18;37.77;;;20.57;;
4290;SDS011;2159;50.906;7.152;2022-12-07T09:09:45;41.57;;;19.43;;
4290;SDS011;2159;50.906;7.152;2022-12-07T09:12:13;41.00;;;22.53;;
4290;SDS011;2159;50.906;7.152;2022-12-07T09:14:40;42.77;;;23.10;;
4290;SDS011;2159;50.906;7.152;2022-12-07T09:17:09;33.53;;;19.67;;
4290;SDS011;2159;50.906;7.152;2022-12-07T09:19:37;35.70;;;20.77;;
4290;SDS011;2159;50.906;7.152;2022-12-07T09:22:05;36.70;;;19.77;;
4290;SDS011;2159;50.906;7.152;2022-12-07T09:24:34;33.70;;;18.70;;
4290;SDS011;2159;50.906;7.152;2022-12-07T09:27:02;32.67;;;18.90;;
4290;SDS011;2159;50.906;7.152;2022-12-07T09:29:30;31.03;;;18.33;;
4290;SDS011;2159;50.906;7.152;2022-12-07T09:31:57;34.33;;;20.10;;
4290;SDS011;2159;50.906;7.152;2022-12-07T09:34:25;38.33;;;22.60;;
4290;SDS011;2159;50.906;7.152;2022-12-07T09:36:53;50.63;;;30.03;;
4290;SDS011;2159;50.906;7.152;2022-12-07T09:39:20;44.70;;;28.23;;
4290;SDS011;2159;50.906;7.152;2022-12-07T09:41:50;44.10;;;26.80;;
4290;SDS011;2159;50.906;7.152;2022-12-07T09:44:19;36.60;;;22.97;;
4290;SDS011;2159;50.906;7.152;2022-12-07T09:46:47;43.80;;;25.93;;
4290;SDS011;2159;50.906;7.152;2022-12-07T09:49:16;38.80;;;22.40;;
4290;SDS011;2159;50.906;7.152;2022-12-07T09:51:44;66.70;;;33.70;;
4290;SDS011;2159;50.906;7.152;2022-12-07T09:54:12;33.47;;;19.10;;
4290;SDS011;2159;50.906;7.152;2022-12-07T09:56:40;29.37;;;17.70;;
4290;SDS011;2159;50.906;7.152;2022-12-07T09:59:12;40.00;;;20.40;;
4290;SDS011;2159;50.906;7.152;2022-12-07T10:01:40;43.53;;;22.10;;
4290;SDS011;2159;50.906;7.152;2022-12-07T10:04:09;46.17;;;22.80;;
4290;SDS011;2159;50.906;7.152;2022-12-07T10:06:39;42.63;;;22.47;;
4290;SDS011;2159;50.906;7.152;2022-12-07T10:09:10;57.53;;;30.27;;
4290;SDS011;2159;50.906;7.152;2022-12-07T10:14:25;39.70;;;22.80;;
4290;SDS011;2159;50.906;7.152;2022-12-07T10:17:26;25.13;;;15.67;;
4290;SDS011;2159;50.906;7.152;2022-12-07T10:20:05;27.17;;;15.80;;
4290;SDS011;2159;50.906;7.152;2022-12-07T10:22:35;28.33;;;16.50;;
4290;SDS011;2159;50.906;7.152;2022-12-07T10:25:07;39.87;;;24.60;;
4290;SDS011;2159;50.906;7.152;2022-12-07T10:27:35;30.90;;;18.60;;
4290;SDS011;2159;50.906;7.152;2022-12-07T10:30:07;30.30;;;18.00;;
4290;SDS011;2159;50.906;7.152;2022-12-07T10:32:40;28.57;;;15.40;;
4290;SDS011;2159;50.906;7.152;2022-12-07T10:37:54;24.93;;;14.33;;
4290;SDS011;2159;50.906;7.152;2022-12-07T10:40:26;99.07;;;41.30;;
4290;SDS011;2159;50.906;7.152;2022-12-07T10:43:00;57.23;;;26.53;;
4290;SDS011;2159;50.906;7.152;2022-12-07T10:45:29;25.30;;;15.70;;
4290;SDS011;2159;50.906;7.152;2022-12-07T10:48:05;30.07;;;14.27;;
4290;SDS011;2159;50.906;7.152;2022-12-07T10:50:44;28.17;;;15.70;;
4290;SDS011;2159;50.906;7.152;2022-12-07T10:53:19;31.50;;;18.23;;
4290;SDS011;2159;50.906;7.152;2022-12-07T10:55:56;24.70;;;16.10;;
4290;SDS011;2159;50.906;7.152;2022-12-07T10:58:36;21.30;;;12.87;;
4290;SDS011;2159;50.906;7.152;2022-12-07T11:01:12;27.60;;;14.73;;
4290;SDS011;2159;50.906;7.152;2022-12-07T11:03:50;25.37;;;14.63;;
4290;SDS011;2159;50.906;7.152;2022-12-07T11:06:23;20.00;;;12.10;;
4290;SDS011;2159;50.906;7.152;2022-12-07T11:09:06;17.30;;;11.93;;
4290;SDS011;2159;50.906;7.152;2022-12-07T11:11:44;21.57;;;11.40;;
4290;SDS011;2159;50.906;7.152;2022-12-07T11:14:16;26.67;;;10.93;;
4290;SDS011;2159;50.906;7.152;2022-12-07T11:16:51;20.73;;;9.67;;
4290;SDS011;2159;50.906;7.152;2022-12-07T11:19:32;15.33;;;9.30;;
4290;SDS011;2159;50.906;7.152;2022-12-07T11:22:03;19.83;;;10.30;;
4290;SDS011;2159;50.906;7.152;2022-12-07T11:24:32;15.17;;;9.03;;
4290;SDS011;2159;50.906;7.152;2022-12-07T11:27:06;18.57;;;9.73;;
4290;SDS011;2159;50.906;7.152;2022-12-07T11:29:41;14.77;;;8.90;;
4290;SDS011;2159;50.906;7.152;2022-12-07T11:32:13;15.97;;;9.50;;
4290;SDS011;2159;50.906;7.152;2022-12-07T11:34:43;20.53;;;9.10;;
4290;SDS011;2159;50.906;7.152;2022-12-07T11:37:13;16.13;;;9.50;;
4290;SDS011;2159;50.906;7.152;2022-12-07T11:39:44;17.63;;;9.40;;
4290;SDS011;2159;50.906;7.152;2022-12-07T11:42:15;15.90;;;9.70;;
4290;SDS011;2159;50.906;7.152;2022-12-07T11:44:47;19.77;;;9.50;;
4290;SDS011;2159;50.906;7.152;2022-12-07T11:47:20;15.27;;;9.20;;
4290;SDS011;2159;50.906;7.152;2022-12-07T11:49:51;13.87;;;9.03;;
4290;SDS011;2159;50.906;7.152;2022-12-07T11:52:22;17.53;;;9.53;;
4290;SDS011;2159;50.906;7.152;2022-12-07T11:54:52;15.30;;;9.23;;
4290;SDS011;2159;50.906;7.152;2022-12-07T11:57:22;19.53;;;8.50;;
4290;SDS011;2159;50.906;7.152;2022-12-07T11:59:52;17.77;;;9.30;;
4290;SDS011;2159;50.906;7.152;2022-12-07T12:02:23;16.47;;;8.80;;
4290;SDS011;2159;50.906;7.152;2022-12-07T12:04:52;16.83;;;9.10;;
4290;SDS011;2159;50.906;7.152;2022-12-07T12:07:22;15.00;;;7.87;;
4290;SDS011;2159;50.906;7.152;2022-12-07T12:10:14;17.40;;;7.77;;
4290;SDS011;2159;50.906;7.152;2022-12-07T12:12:50;14.23;;;7.33;;
4290;SDS011;2159;50.906;7.152;2022-12-07T12:15:53;12.33;;;7.90;;
4290;SDS011;2159;50.906;7.152;2022-12-07T12:18:41;11.23;;;7.20;;
4290;SDS011;2159;50.906;7.152;2022-12-07T12:21:13;10.97;;;6.57;;
4290;SDS011;2159;50.906;7.152;2022-12-07T12:23:45;19.97;;;6.80;;
4290;SDS011;2159;50.906;7.152;2022-12-07T12:26:16;13.17;;;6.67;;
4290;SDS011;2159;50.906;7.152;2022-12-07T12:28:50;12.57;;;6.10;;
4290;SDS011;2159;50.906;7.152;2022-12-07T12:31:28;12.83;;;6.00;;
4290;SDS011;2159;50.906;7.152;2022-12-07T12:34:00;11.70;;;6.03;;
4290;SDS011;2159;50.906;7.152;2022-12-07T12:36:43;11.33;;;5.70;;
4290;SDS011;2159;50.906;7.152;2022-12-07T12:39:11;9.87;;;5.40;;
4290;SDS011;2159;50.906;7.152;2022-12-07T12:41:56;9.00;;;5.30;;
4290;SDS011;2159;50.906;7.152;2022-12-07T12:50:31;9.67;;;6.03;;
4290;SDS011;2159;50.906;7.152;2022-12-07T12:53:03;13.70;;;7.00;;
4290;SDS011;2159;50.906;7.152;2022-12-07T12:58:25;16.00;;;7.40;;
4290;SDS011;2159;50.906;7.152;2022-12-07T13:03:45;12.37;;;7.07;;
4290;SDS011;2159;50.906;7.152;2022-12-07T13:06:30;15.07;;;7.83;;
4290;SDS011;2159;50.906;7.152;2022-12-07T13:08:59;13.63;;;7.30;;
4290;SDS011;2159;50.906;7.152;2022-12-07T13:11:28;15.57;;;7.40;;
4290;SDS011;2159;50.906;7.152;2022-12-07T13:16:39;14.63;;;7.73;;
4290;SDS011;2159;50.906;7.152;2022-12-07T13:24:54;12.37;;;7.60;;
4290;SDS011;2159;50.906;7.152;2022-12-07T13:27:22;14.60;;;7.97;;
4290;SDS011;2159;50.906;7.152;2022-12-07T13:29:51;14.93;;;7.90;;
4290;SDS011;2159;50.906;7.152;2022-12-07T13:32:22;18.30;;;8.50;;
4290;SDS011;2159;50.906;7.152;2022-12-07T13:34:50;13.13;;;7.97;;
4290;SDS011;2159;50.906;7.152;2022-12-07T13:37:20;16.97;;;8.67;;
4290;SDS011;2159;50.906;7.152;2022-12-07T13:39:49;18.43;;;8.07;;
4290;SDS011;2159;50.906;7.152;2022-12-07T13:42:26;17.00;;;8.47;;
4290;SDS011;2159;50.906;7.152;2022-12-07T13:44:54;12.80;;;7.13;;
4290;SDS011;2159;50.906;7.152;2022-12-07T13:47:23;19.43;;;7.13;;
4290;SDS011;2159;50.906;7.152;2022-12-07T13:49:54;12.27;;;6.90;;
4290;SDS011;2159;50.906;7.152;2022-12-07T13:52:22;14.97;;;8.00;;
4290;SDS011;2159;50.906;7.152;2022-12-07T13:54:56;11.00;;;6.97;;
4290;SDS011;2159;50.906;7.152;2022-12-07T13:57:27;16.90;;;7.57;;
4290;SDS011;2159;50.906;7.152;2022-12-07T13:59:55;14.13;;;6.97;;
4290;SDS011;2159;50.906;7.152;2022-12-07T14:02:25;13.63;;;6.90;;
4290;SDS011;2159;50.906;7.152;2022-12-07T14:05:09;12.40;;;6.60;;
4290;SDS011;2159;50.906;7.152;2022-12-07T14:07:47;13.97;;;7.30;;
4290;SDS011;2159;50.906;7.152;2022-12-07T14:10:22;14.63;;;7.23;;
4290;SDS011;2159;50.906;7.152;2022-12-07T14:12:52;9.53;;;6.63;;
4290;SDS011;2159;50.906;7.152;2022-12-07T14:15:20;11.80;;;7.40;;
4290;SDS011;2159;50.906;7.152;2022-12-07T14:17:51;16.50;;;8.20;;
4290;SDS011;2159;50.906;7.152;2022-12-07T14:20:29;12.30;;;7.70;;
4290;SDS011;2159;50.906;7.152;2022-12-07T14:22:56;12.90;;;7.63;;
4290;SDS011;2159;50.906;7.152;2022-12-07T14:25:24;12.73;;;7.40;;
4290;SDS011;2159;50.906;7.152;2022-12-07T14:27:55;13.27;;;7.87;;
4290;SDS011;2159;50.906;7.152;2022-12-07T14:30:25;15.67;;;8.93;;
4290;SDS011;2159;50.906;7.152;2022-12-07T14:32:54;12.20;;;7.70;;
4290;SDS011;2159;50.906;7.152;2022-12-07T14:35:22;10.97;;;7.40;;
4290;SDS011;2159;50.906;7.152;2022-12-07T14:37:49;12.53;;;7.87;;
4290;SDS011;2159;50.906;7.152;2022-12-07T14:40:17;12.43;;;7.80;;
4290;SDS011;2159;50.906;7.152;2022-12-07T14:42:45;13.30;;;7.03;;
4290;SDS011;2159;50.906;7.152;2022-12-07T14:45:16;12.63;;;7.33;;
4290;SDS011;2159;50.906;7.152;2022-12-07T14:47:44;12.27;;;7.10;;
4290;SDS011;2159;50.906;7.152;2022-12-07T14:50:33;17.13;;;7.00;;
4290;SDS011;2159;50.906;7.152;2022-12-07T14:53:03;13.03;;;7.23;;
4290;SDS011;2159;50.906;7.152;2022-12-07T14:55:49;12.53;;;7.30;;
4290;SDS011;2159;50.906;7.152;2022-12-07T14:58:16;15.20;;;6.93;;
4290;SDS011;2159;50.906;7.152;2022-12-07T15:00:46;13.77;;;7.47;;
4290;SDS011;2159;50.906;7.152;2022-12-07T15:03:14;14.13;;;7.40;;
4290;SDS011;2159;50.906;7.152;2022-12-07T15:05:41;12.43;;;7.70;;
4290;SDS011;2159;50.906;7.152;2022-12-07T15:08:09;12.17;;;7.23;;
4290;SDS011;2159;50.906;7.152;2022-12-07T15:10:37;14.30;;;7.63;;
4290;SDS011;2159;50.906;7.152;2022-12-07T15:13:06;12.93;;;8.10;;
4290;SDS011;2159;50.906;7.152;2022-12-07T15:15:53;15.93;;;8.30;;
4290;SDS011;2159;50.906;7.152;2022-12-07T15:18:21;14.37;;;8.17;;
4290;SDS011;2159;50.906;7.152;2022-12-07T15:20:49;14.40;;;8.27;;
4290;SDS011;2159;50.906;7.152;2022-12-07T15:23:17;12.20;;;7.53;;
4290;SDS011;2159;50.906;7.152;2022-12-07T15:25:46;13.87;;;9.00;;
4290;SDS011;2159;50.906;7.152;2022-12-07T15:28:13;16.93;;;8.83;;
4290;SDS011;2159;50.906;7.152;2022-12-07T15:30:43;14.67;;;8.97;;
4290;SDS011;2159;50.906;7.152;2022-12-07T15:33:12;16.77;;;9.40;;
4290;SDS011;2159;50.906;7.152;2022-12-07T15:35:40;17.90;;;9.20;;